»·PEaware :: N13W KSNA-KHMT

N13W :: KSNA-KHMT

FLIGHT INFORMATION

Flight Status: Arrived
Operator: Privately registered:
United States
More flights under this callsign
Pilot: Will N. (25416)
Aircraft: CESSNA 172 SKYHAWK
(C172)
More flights by this aircraft type
Origin: KSNA John Wayne-Orange Co
United States
Destination: KHMT Hemet-Ryan
United States
More flights between these airports :: More routes between these airports
Route: SLI V8 PDZ V186 WESIN
File this flight plan on PilotEdge
Remarks: TEC CSTP14
Altitude:
(Current/Filed)
5,000ft
Speed:
(Current/Filed)
120kts
Departed: 10-Sep-19 08:36 PM
Arrived: 10-Sep-19 09:12 PM
Distance/Time
Traveled:
42nm/0:35
Distance/Time
To Go:
Arrived

Flight Plot

Page will automatically refresh every two minutes.


Map Options




Map Legend


Flown Route
Filed Route
Departure Airport
Arrival Airport
Navaid (VOR, NDB)
Fix

Horizontal Profiles

Position Reports

Time Latitude Longitude Heading Altitude Ground
Speed
10-Sep-19 20:23 33.672389 -117.873223 20 60ft 0kts
10-Sep-19 20:24 33.672389 -117.873223 20 60ft 0kts
10-Sep-19 20:25 33.672389 -117.873223 20 60ft 0kts
10-Sep-19 20:26 33.672389 -117.873223 20 60ft 0kts
10-Sep-19 20:27 33.672389 -117.873223 20 60ft 0kts
10-Sep-19 20:28 33.672389 -117.873223 20 60ft 0kts
10-Sep-19 20:29 33.672389 -117.873223 20 60ft 0kts
10-Sep-19 20:30 33.672389 -117.873223 20 60ft 0kts
10-Sep-19 20:31 33.672389 -117.873223 20 60ft 0kts
10-Sep-19 20:32 33.672389 -117.873223 20 60ft 0kts
10-Sep-19 20:33 33.672309 -117.872453 55 60ft 6kts
10-Sep-19 20:34 33.676407 -117.869890 25 60ft 23kts
10-Sep-19 20:35 33.678086 -117.868494 96 60ft 0kts
10-Sep-19 20:36 33.675981 -117.868656 207 60ft 54kts
10-Sep-19 20:37 33.657484 -117.883216 238 837ft 81kts
10-Sep-19 20:38 33.649869 -117.907991 292 1800ft 84kts
10-Sep-19 20:39 33.675818 -117.919894 340 2531ft 96kts
10-Sep-19 20:39 33.697403 -117.926190 340 3222ft 96kts
10-Sep-19 20:40 33.724259 -117.928725 2 3989ft 100kts
10-Sep-19 20:42 33.756398 -117.923215 2 4805ft 101kts
10-Sep-19 20:42 33.781655 -117.918855 3 4990ft 120kts
10-Sep-19 20:43 33.814774 -117.910468 39 4983ft 128kts
10-Sep-19 20:45 33.831980 -117.863992 68 4987ft 132kts
10-Sep-19 20:45 33.841612 -117.828754 70 4986ft 133kts
10-Sep-19 20:46 33.852701 -117.786233 70 4985ft 131kts
10-Sep-19 20:47 33.863200 -117.743738 69 4985ft 131kts
10-Sep-19 20:48 33.874129 -117.701478 68 4982ft 132kts
10-Sep-19 20:49 33.885216 -117.658601 68 4965ft 133kts
10-Sep-19 20:50 33.896268 -117.615781 69 4962ft 134kts
10-Sep-19 20:51 33.907478 -117.572261 69 4963ft 136kts
10-Sep-19 20:52 33.911003 -117.528781 126 4962ft 135kts
10-Sep-19 20:53 33.882970 -117.500362 149 4966ft 132kts
10-Sep-19 20:54 33.852867 -117.475049 148 4968ft 132kts
10-Sep-19 20:55 33.822546 -117.449634 148 4971ft 132kts
10-Sep-19 20:56 33.792249 -117.424267 148 4974ft 132kts
10-Sep-19 20:57 33.761841 -117.398824 148 4979ft 133kts
10-Sep-19 20:58 33.731446 -117.373419 148 4979ft 132kts
10-Sep-19 20:59 33.701066 -117.348051 148 4975ft 131kts
10-Sep-19 21:00 33.684544 -117.313448 64 4445ft 137kts
10-Sep-19 21:01 33.694817 -117.269299 76 3943ft 132kts
10-Sep-19 21:02 33.701933 -117.225092 76 3436ft 133kts
10-Sep-19 21:03 33.706191 -117.180903 83 2927ft 130kts
10-Sep-19 21:04 33.707749 -117.137100 86 2670ft 124kts
10-Sep-19 21:05 33.708312 -117.096298 86 2661ft 121kts
10-Sep-19 21:06 33.710549 -117.056298 77 2633ft 115kts
10-Sep-19 21:07 33.716405 -117.023567 59 2584ft 89kts
10-Sep-19 21:08 33.726696 -116.999736 46 2346ft 72kts
10-Sep-19 21:09 33.740765 -116.990796 328 2044ft 56kts
10-Sep-19 21:10 33.739801 -117.007661 261 1716ft 54kts
10-Sep-19 21:11 33.733742 -117.022264 245 1516ft 31kts
10-Sep-19 21:12 33.730634 -117.023594 148 1516ft 13kts

Navigation Log

Ident Type
Flight plan parsing failed, navigation log unavailable